Time;durP1;ratioP1;P1;durP2;ratioP2;P2;SDS_P1;SDS_P2;PMS_P1;PMS_P2;Temp;Humidity;BMP_temperature;BMP_pressure;BME280_temperature;BME280_humidity;BME280_pressure;Samples;Min_cycle;Max_cycle;Signal;HPM_P1;HPM_P2
2023/11/13 00:00:18;;;;;;;18.33;10.87;;;5.80;99.90;;;;;;5057312;28;20108;-81
2023/11/13 00:02:44;;;;;;;19.83;11.63;;;5.80;99.90;;;;;;5057290;28;20085;-81
2023/11/13 00:05:10;;;;;;;17.77;10.27;;;5.80;99.90;;;;;;5059329;28;20048;-81
2023/11/13 00:07:36;;;;;;;18.67;10.43;;;5.90;99.90;;;;;;5055702;28;20064;-81
2023/11/13 00:10:03;;;;;;;16.43;11.00;;;5.90;99.90;;;;;;5057442;28;20033;-81
2023/11/13 00:12:29;;;;;;;20.40;10.17;;;5.90;99.90;;;;;;5055814;28;20029;-80
2023/11/13 00:14:55;;;;;;;14.83;9.87;;;5.90;99.90;;;;;;5057876;28;20036;-81
2023/11/13 00:17:20;;;;;;;18.33;11.23;;;5.90;99.90;;;;;;5042319;28;20021;-80
2023/11/13 00:19:47;;;;;;;16.23;10.23;;;5.90;99.90;;;;;;5043631;28;20084;-81
2023/11/13 00:22:12;;;;;;;16.27;10.60;;;5.90;99.90;;;;;;5044141;28;20049;-80
2023/11/13 00:24:39;;;;;;;16.30;9.23;;;5.90;99.90;;;;;;5058617;28;20021;-80
2023/11/13 00:27:05;;;;;;;16.40;9.70;;;5.90;99.90;;;;;;5059838;28;20018;-80
2023/11/13 00:29:30;;;;;;;20.10;10.93;;;5.90;99.90;;;;;;5040594;28;20053;-81
2023/11/13 00:31:56;;;;;;;17.37;9.13;;;6.00;99.90;;;;;;5041898;28;20025;-81
2023/11/13 00:34:22;;;;;;;17.97;10.33;;;6.00;99.90;;;;;;5056124;28;20026;-80
2023/11/13 00:36:51;;;;;;;17.67;9.27;;;6.00;99.90;;;;;;5056016;28;20485;-81
2023/11/13 00:39:18;;;;;;;19.43;9.83;;;6.00;99.90;;;;;;5056704;28;20021;-80
2023/11/13 00:41:43;;;;;;;19.80;9.97;;;6.00;99.90;;;;;;5039884;28;20037;-81
2023/11/13 00:44:09;;;;;;;15.97;9.57;;;6.00;99.90;;;;;;5056980;28;20044;-81
2023/11/13 00:46:35;;;;;;;17.37;9.60;;;5.90;99.90;;;;;;5040658;28;20017;-80
2023/11/13 00:49:00;;;;;;;18.03;9.87;;;5.90;99.90;;;;;;5041287;28;20037;-81
2023/11/13 00:51:26;;;;;;;19.20;10.17;;;6.00;99.90;;;;;;5038575;28;20025;-80
2023/11/13 00:53:52;;;;;;;14.77;8.97;;;5.90;99.90;;;;;;5038942;28;20022;-80
2023/11/13 00:56:18;;;;;;;18.33;9.53;;;5.90;99.90;;;;;;5041133;28;20031;-80
2023/11/13 00:58:43;;;;;;;17.63;9.10;;;5.90;99.90;;;;;;5039507;28;20096;-80
2023/11/13 01:01:10;;;;;;;14.37;9.30;;;5.90;99.90;;;;;;5056719;28;20037;-80
2023/11/13 01:03:36;;;;;;;16.70;8.87;;;5.90;99.90;;;;;;5037995;28;20098;-80
2023/11/13 01:06:03;;;;;;;15.90;8.70;;;5.90;99.90;;;;;;5041733;28;20025;-80
2023/11/13 01:08:29;;;;;;;15.77;9.83;;;6.00;99.90;;;;;;5038628;28;20041;-80
2023/11/13 01:10:54;;;;;;;18.10;10.13;;;6.00;99.90;;;;;;5038985;28;20043;-80
2023/11/13 01:13:21;;;;;;;15.13;8.73;;;6.00;99.90;;;;;;5055815;28;20025;-80
2023/11/13 01:15:50;;;;;;;16.77;9.80;;;6.00;99.90;;;;;;5038117;28;20049;-80
2023/11/13 01:18:20;;;;;;;19.67;9.77;;;6.00;99.90;;;;;;5040259;28;20099;-81
2023/11/13 01:20:46;;;;;;;17.10;9.27;;;6.00;99.90;;;;;;5039186;28;20025;-80
2023/11/13 01:23:12;;;;;;;15.93;9.83;;;6.00;99.90;;;;;;5039886;28;20029;-81
2023/11/13 01:25:38;;;;;;;21.43;10.43;;;5.90;99.90;;;;;;5038761;28;20026;-80
2023/11/13 01:28:04;;;;;;;16.53;9.43;;;5.90;99.90;;;;;;5038537;28;20017;-81
2023/11/13 01:30:30;;;;;;;17.67;8.80;;;5.90;99.90;;;;;;5040474;28;20018;-80
2023/11/13 01:32:55;;;;;;;17.47;10.00;;;5.90;99.90;;;;;;5038423;28;20028;-81
2023/11/13 01:35:24;;;;;;;15.53;9.43;;;5.90;99.90;;;;;;5039924;28;20366;-80
2023/11/13 01:37:50;;;;;;;15.60;10.03;;;6.00;99.90;;;;;;5037512;28;20032;-81
2023/11/13 01:40:16;;;;;;;16.27;8.90;;;5.90;99.90;;;;;;5039329;28;20033;-81
2023/11/13 01:42:42;;;;;;;15.57;8.97;;;5.90;99.90;;;;;;5038019;28;20885;-80
2023/11/13 01:45:08;;;;;;;14.67;9.23;;;5.90;99.90;;;;;;5038884;28;20025;-81
2023/11/13 01:47:35;;;;;;;15.50;9.07;;;5.90;99.90;;;;;;5039261;28;20029;-80
2023/11/13 01:50:02;;;;;;;17.63;9.43;;;5.90;99.90;;;;;;5039347;28;20025;-80
2023/11/13 01:52:29;;;;;;;16.93;9.53;;;5.90;99.90;;;;;;5039781;28;20025;-80
2023/11/13 01:54:55;;;;;;;16.73;9.30;;;5.90;99.90;;;;;;5037445;28;20040;-81
2023/11/13 01:57:21;;;;;;;15.73;8.93;;;5.90;99.90;;;;;;5039518;28;20437;-81
2023/11/13 01:59:48;;;;;;;14.23;9.07;;;5.90;99.90;;;;;;5037846;28;20061;-81
2023/11/13 02:02:14;;;;;;;15.93;9.33;;;5.90;99.90;;;;;;5038762;28;20017;-81
2023/11/13 02:04:40;;;;;;;16.20;9.90;;;5.90;99.90;;;;;;5039115;28;20539;-81
2023/11/13 02:07:06;;;;;;;16.70;9.77;;;6.00;99.90;;;;;;5038088;28;20018;-81
2023/11/13 02:09:32;;;;;;;15.07;9.80;;;5.90;99.90;;;;;;5039309;28;20032;-81
2023/11/13 02:11:58;;;;;;;16.10;9.83;;;6.00;99.90;;;;;;5037412;28;20029;-81
2023/11/13 02:14:24;;;;;;;17.10;10.53;;;6.00;99.90;;;;;;5041346;28;20056;-81
2023/11/13 02:17:00;;;;;;;17.20;10.00;;;6.00;99.90;;;;;;5041608;28;20047;-81
2023/11/13 02:19:27;;;;;;;15.93;10.03;;;6.00;99.90;;;;;;5042490;28;20026;-81
2023/11/13 02:21:53;;;;;;;16.17;9.33;;;6.10;99.90;;;;;;5059322;28;20477;-81
2023/11/13 02:24:20;;;;;;;15.17;10.00;;;6.10;99.90;;;;;;5040988;28;20088;-81
2023/11/13 02:26:46;;;;;;;17.03;9.97;;;6.10;99.90;;;;;;5043192;28;20093;-81
2023/11/13 02:29:11;;;;;;;16.43;10.43;;;6.20;99.90;;;;;;5040340;28;20432;-81
2023/11/13 02:31:52;;;;;;;16.83;10.23;;;6.20;99.90;;;;;;5042948;28;20412;-81
2023/11/13 02:34:19;;;;;;;15.60;10.10;;;6.20;99.90;;;;;;5058397;28;20017;-81
2023/11/13 02:36:48;;;;;;;17.17;10.23;;;6.20;99.90;;;;;;5041648;28;20022;-81
2023/11/13 02:39:16;;;;;;;16.10;10.00;;;6.20;99.90;;;;;;5059003;28;20051;-80
2023/11/13 02:41:46;;;;;;;17.10;9.93;;;6.30;99.90;;;;;;5040347;28;20053;-81
2023/11/13 02:44:12;;;;;;;16.27;10.00;;;6.20;99.90;;;;;;5042071;28;20033;-81
2023/11/13 02:46:38;;;;;;;19.00;10.03;;;6.20;99.90;;;;;;5040645;28;20359;-81
2023/11/13 02:49:04;;;;;;;16.50;9.27;;;6.20;99.90;;;;;;5042344;28;20076;-81
2023/11/13 02:51:30;;;;;;;14.73;9.20;;;6.20;99.90;;;;;;5041215;28;20087;-81
2023/11/13 02:53:56;;;;;;;19.70;10.07;;;6.20;99.90;;;;;;5042311;28;20428;-81
2023/11/13 02:56:22;;;;;;;16.33;9.60;;;6.20;99.90;;;;;;5041718;28;20025;-81
2023/11/13 02:58:48;;;;;;;14.67;8.40;;;6.30;99.90;;;;;;5056779;28;20381;-81
2023/11/13 03:01:15;;;;;;;13.80;8.90;;;6.30;99.90;;;;;;5042055;28;20052;-81
2023/11/13 03:03:44;;;;;;;15.90;8.70;;;6.30;99.90;;;;;;5040066;28;20117;-81
2023/11/13 03:06:12;;;;;;;16.03;9.33;;;6.30;99.90;;;;;;5058532;28;20025;-81
2023/11/13 03:08:38;;;;;;;17.40;8.33;;;6.30;99.90;;;;;;5040634;28;20060;-81
2023/11/13 03:11:03;;;;;;;16.97;9.43;;;6.30;99.90;;;;;;5040878;28;20113;-81
2023/11/13 03:13:29;;;;;;;14.57;9.47;;;6.30;99.90;;;;;;5041550;28;20424;-81
2023/11/13 03:15:55;;;;;;;17.93;9.53;;;6.30;99.90;;;;;;5056918;28;20489;-81
2023/11/13 03:18:21;;;;;;;15.57;8.83;;;6.30;99.90;;;;;;5042240;28;20021;-81
2023/11/13 03:20:46;;;;;;;14.77;9.10;;;6.30;99.90;;;;;;5058417;28;20033;-82
2023/11/13 03:23:14;;;;;;;15.47;9.73;;;6.30;99.90;;;;;;5045795;28;20081;-80
2023/11/13 03:25:42;;;;;;;14.83;8.77;;;6.40;99.90;;;;;;5060968;28;20017;-80
2023/11/13 03:28:08;;;;;;;12.93;8.23;;;6.40;99.90;;;;;;5044332;28;20037;-80
2023/11/13 03:30:37;;;;;;;14.53;8.50;;;6.40;99.90;;;;;;5045675;28;20022;-81
2023/11/13 03:33:03;;;;;;;16.77;8.27;;;6.40;99.90;;;;;;5039317;28;20032;-81
2023/11/13 03:35:30;;;;;;;14.37;8.10;;;6.40;99.90;;;;;;5041696;28;20025;-80
2023/11/13 03:37:56;;;;;;;14.83;8.43;;;6.40;99.90;;;;;;5039518;28;20056;-80
2023/11/13 03:40:24;;;;;;;14.57;9.27;;;6.50;99.90;;;;;;5040812;28;20034;-80
2023/11/13 03:42:50;;;;;;;13.63;8.13;;;6.50;99.90;;;;;;5040929;28;20032;-80
2023/11/13 03:45:15;;;;;;;13.27;8.27;;;6.50;99.90;;;;;;5042433;28;20049;-81
2023/11/13 03:47:41;;;;;;;15.33;8.50;;;6.50;99.90;;;;;;5042668;28;20021;-80
2023/11/13 03:50:07;;;;;;;15.03;8.47;;;6.60;99.90;;;;;;5041661;28;20029;-80
2023/11/13 03:52:33;;;;;;;13.90;7.47;;;6.60;99.90;;;;;;5043689;28;20040;-80
2023/11/13 03:54:59;;;;;;;13.03;8.10;;;6.60;99.90;;;;;;5057126;28;20442;-80
2023/11/13 03:57:25;;;;;;;16.60;8.40;;;6.60;99.90;;;;;;5041157;28;20013;-81
2023/11/13 03:59:52;;;;;;;14.80;7.40;;;6.70;99.90;;;;;;5039432;28;20033;-80
2023/11/13 04:02:18;;;;;;;12.90;7.60;;;6.70;99.90;;;;;;5040259;28;20026;-80
2023/11/13 04:04:44;;;;;;;14.73;7.93;;;6.70;99.90;;;;;;5040659;28;20046;-80
2023/11/13 04:07:10;;;;;;;11.13;7.43;;;6.80;99.90;;;;;;5039371;28;20028;-80
2023/11/13 04:09:36;;;;;;;13.20;8.07;;;6.80;99.90;;;;;;5040874;28;20057;-81
2023/11/13 04:12:02;;;;;;;13.07;7.87;;;6.80;99.90;;;;;;5039081;28;20018;-80
2023/11/13 04:14:28;;;;;;;16.77;8.37;;;6.90;99.90;;;;;;5040853;28;20104;-81
2023/11/13 04:16:54;;;;;;;13.73;7.73;;;6.90;99.90;;;;;;5040482;28;20033;-81
2023/11/13 04:19:22;;;;;;;12.47;8.17;;;6.90;99.90;;;;;;5039990;28;20017;-81
2023/11/13 04:21:48;;;;;;;14.90;8.87;;;6.90;99.90;;;;;;5040053;28;20036;-80
2023/11/13 04:24:14;;;;;;;14.37;7.80;;;6.90;99.90;;;;;;5038989;28;20049;-81
2023/11/13 04:26:40;;;;;;;12.87;7.60;;;6.90;99.90;;;;;;5040847;28;20037;-81
2023/11/13 04:29:05;;;;;;;14.17;7.63;;;6.90;99.90;;;;;;5038122;28;20019;-81
2023/11/13 04:31:31;;;;;;;12.90;7.90;;;7.00;99.90;;;;;;5057036;28;20009;-80
2023/11/13 04:33:57;;;;;;;13.83;7.63;;;7.00;99.90;;;;;;5040268;28;20381;-80
2023/11/13 04:36:23;;;;;;;13.37;7.50;;;7.00;99.90;;;;;;5040129;28;20025;-81
2023/11/13 04:38:48;;;;;;;12.17;7.80;;;7.00;99.90;;;;;;5038896;28;20029;-80
2023/11/13 04:41:16;;;;;;;16.70;7.97;;;7.00;99.90;;;;;;5040408;28;20075;-80
2023/11/13 04:43:45;;;;;;;14.40;7.60;;;7.00;99.90;;;;;;5056535;28;20025;-80
2023/11/13 04:46:12;;;;;;;11.87;6.97;;;7.10;99.90;;;;;;5037932;28;20063;-80
2023/11/13 04:48:39;;;;;;;14.83;7.27;;;7.00;99.90;;;;;;5056755;28;20036;-81
2023/11/13 04:51:05;;;;;;;12.23;7.53;;;7.00;99.90;;;;;;5038794;28;20041;-81
2023/11/13 04:53:31;;;;;;;13.53;7.23;;;7.10;99.90;;;;;;5039460;28;20025;-81
2023/11/13 04:55:57;;;;;;;12.30;7.53;;;7.10;99.90;;;;;;5056218;28;20022;-80
2023/11/13 04:58:23;;;;;;;13.30;7.50;;;7.10;99.90;;;;;;5038853;28;20289;-80
2023/11/13 05:00:48;;;;;;;10.90;7.00;;;7.10;99.90;;;;;;5056745;28;20029;-80
2023/11/13 05:03:14;;;;;;;12.00;7.83;;;7.10;99.90;;;;;;5039169;28;20031;-81
2023/11/13 05:05:41;;;;;;;14.03;7.70;;;7.10;99.90;;;;;;5040336;28;20022;-81
2023/11/13 05:08:06;;;;;;;15.53;7.93;;;7.10;99.90;;;;;;5038786;28;20029;-80
2023/11/13 05:10:33;;;;;;;15.13;7.97;;;7.20;99.90;;;;;;5039667;28;20025;-81
2023/11/13 05:12:59;;;;;;;15.40;7.13;;;7.20;99.90;;;;;;5038777;28;20021;-81
2023/11/13 05:15:25;;;;;;;12.60;7.27;;;7.20;99.90;;;;;;5038740;28;20052;-81
2023/11/13 05:17:51;;;;;;;14.57;7.83;;;7.20;99.90;;;;;;5039514;28;20025;-81
2023/11/13 05:20:17;;;;;;;13.50;8.17;;;7.20;99.90;;;;;;5037846;28;20044;-81
2023/11/13 05:22:43;;;;;;;13.30;7.80;;;7.20;99.90;;;;;;5040262;28;20706;-81
2023/11/13 05:25:09;;;;;;;15.23;8.97;;;7.20;99.90;;;;;;5039159;28;20018;-81
2023/11/13 05:27:34;;;;;;;13.47;8.20;;;7.30;99.90;;;;;;5052583;28;20021;-81
2023/11/13 05:30:01;;;;;;;14.13;8.60;;;7.30;99.90;;;;;;5058279;28;20531;-81
2023/11/13 05:32:26;;;;;;;13.10;7.50;;;7.30;99.90;;;;;;5058303;28;20080;-81
2023/11/13 05:34:52;;;;;;;12.80;8.47;;;7.30;99.90;;;;;;5060960;28;20021;-81
2023/11/13 05:37:18;;;;;;;16.03;8.53;;;7.30;99.90;;;;;;5059230;28;20017;-80
2023/11/13 05:39:44;;;;;;;13.20;8.90;;;7.30;99.90;;;;;;5059680;28;20041;-80
2023/11/13 05:42:09;;;;;;;13.17;8.67;;;7.30;99.90;;;;;;5056992;28;20079;-84
2023/11/13 05:44:36;;;;;;;12.50;8.27;;;7.30;99.90;;;;;;5059377;28;20067;-80
2023/11/13 05:47:05;;;;;;;13.30;8.30;;;7.30;99.90;;;;;;5058526;28;20029;-80
2023/11/13 05:49:30;;;;;;;14.80;9.60;;;7.30;99.90;;;;;;5059870;28;20062;-80
2023/11/13 05:51:57;;;;;;;13.57;8.23;;;7.30;99.90;;;;;;5064129;28;20148;-80
2023/11/13 05:54:23;;;;;;;15.47;9.00;;;7.30;99.90;;;;;;5062988;28;20031;-80
2023/11/13 05:56:48;;;;;;;15.77;9.67;;;7.30;99.90;;;;;;5063514;28;20107;-80
2023/11/13 05:59:15;;;;;;;14.57;9.43;;;7.30;99.90;;;;;;5061442;28;20033;-82
2023/11/13 06:01:41;;;;;;;14.70;9.00;;;7.40;99.90;;;;;;5064549;28;20057;-81
2023/11/13 06:04:07;;;;;;;13.63;9.30;;;7.30;99.90;;;;;;5061732;28;20505;-80
2023/11/13 06:06:33;;;;;;;17.63;9.30;;;7.40;99.90;;;;;;5062221;28;20470;-80
2023/11/13 06:08:59;;;;;;;17.40;10.33;;;7.40;99.90;;;;;;5062680;28;20024;-80
2023/11/13 06:11:25;;;;;;;16.87;9.73;;;7.40;99.90;;;;;;5061072;28;20025;-80
2023/11/13 06:13:51;;;;;;;17.20;10.57;;;7.40;99.90;;;;;;5063055;28;20027;-80
2023/11/13 06:16:16;;;;;;;20.43;10.37;;;7.40;99.90;;;;;;5054688;28;20017;-80
2023/11/13 06:18:53;;;;;;;15.60;9.73;;;7.40;99.90;;;;;;5059971;28;20025;-80
2023/11/13 06:21:19;;;;;;;15.63;10.57;;;7.40;99.90;;;;;;5061214;28;20037;-80
2023/11/13 06:23:45;;;;;;;20.17;11.27;;;7.40;99.90;;;;;;5057896;28;20079;-80
2023/11/13 06:26:14;;;;;;;19.70;11.70;;;7.50;99.90;;;;;;5061953;28;20029;-80
2023/11/13 06:28:40;;;;;;;18.07;11.23;;;7.50;99.90;;;;;;5053343;28;20084;-80
2023/11/13 06:31:08;;;;;;;17.10;10.57;;;7.50;99.90;;;;;;5052208;28;20469;-81
2023/11/13 06:33:36;;;;;;;18.43;10.87;;;7.50;99.90;;;;;;5049279;28;20088;-80
2023/11/13 06:36:03;;;;;;;19.33;11.13;;;7.50;99.90;;;;;;5050845;28;20029;-80
2023/11/13 06:38:29;;;;;;;18.70;11.60;;;7.50;99.90;;;;;;5052019;28;20017;-80
2023/11/13 06:40:55;;;;;;;19.53;11.53;;;7.60;99.90;;;;;;5052101;28;20056;-80
2023/11/13 06:43:24;;;;;;;18.90;10.87;;;7.50;99.90;;;;;;5070640;28;20088;-80
2023/11/13 06:45:49;;;;;;;18.97;11.33;;;7.60;99.90;;;;;;5062281;28;20021;-79
2023/11/13 06:48:16;;;;;;;21.27;11.33;;;7.60;99.90;;;;;;5065455;28;20085;-80
2023/11/13 06:50:43;;;;;;;20.03;11.30;;;7.60;99.90;;;;;;5061306;28;20021;-80
2023/11/13 06:53:09;;;;;;;23.03;12.23;;;7.60;99.90;;;;;;5063635;28;20032;-80
2023/11/13 06:55:34;;;;;;;20.53;11.20;;;7.70;99.90;;;;;;5060957;28;20427;-80
2023/11/13 06:58:00;;;;;;;17.73;10.70;;;7.70;99.90;;;;;;5061330;28;20029;-80
2023/11/13 07:00:26;;;;;;;18.43;11.17;;;7.70;99.90;;;;;;5061158;28;20041;-80
2023/11/13 07:02:52;;;;;;;21.30;10.80;;;7.70;99.90;;;;;;5060259;28;20021;-79
2023/11/13 07:05:18;;;;;;;23.63;12.37;;;7.70;99.90;;;;;;5061210;28;20021;-80
2023/11/13 07:07:44;;;;;;;18.97;10.77;;;7.80;99.90;;;;;;5059719;28;20037;-79
2023/11/13 07:10:12;;;;;;;18.20;10.47;;;7.80;99.90;;;;;;5051145;28;20037;-79
2023/11/13 07:12:41;;;;;;;20.07;11.17;;;7.80;99.90;;;;;;5040726;28;20049;-80
2023/11/13 07:15:07;;;;;;;19.10;11.13;;;7.80;99.90;;;;;;5040856;28;20021;-79
2023/11/13 07:17:33;;;;;;;21.27;11.23;;;7.90;99.90;;;;;;5041452;28;20052;-78
2023/11/13 07:19:59;;;;;;;20.50;10.83;;;7.90;99.90;;;;;;5039931;28;20124;-79
2023/11/13 07:22:28;;;;;;;21.57;11.90;;;7.90;99.90;;;;;;5043221;28;20079;-78
2023/11/13 07:24:54;;;;;;;20.10;10.50;;;8.00;99.90;;;;;;5039064;28;20025;-79
2023/11/13 07:27:21;;;;;;;19.47;10.70;;;8.00;99.90;;;;;;5041169;28;20063;-79
2023/11/13 07:29:53;;;;;;;18.67;10.17;;;8.00;99.90;;;;;;5041633;28;20481;-79
2023/11/13 07:32:19;;;;;;;20.50;11.73;;;8.00;99.90;;;;;;5040545;28;20096;-80
2023/11/13 07:34:44;;;;;;;19.87;10.67;;;8.10;99.90;;;;;;5042354;28;20470;-79
2023/11/13 07:37:10;;;;;;;21.40;11.23;;;8.10;99.90;;;;;;5039535;28;20060;-80
2023/11/13 07:39:36;;;;;;;18.60;10.27;;;8.10;99.90;;;;;;5041400;28;20029;-80
2023/11/13 07:42:03;;;;;;;19.60;10.60;;;8.10;99.90;;;;;;5039099;28;20057;-79
2023/11/13 07:44:28;;;;;;;18.60;10.20;;;8.20;99.90;;;;;;5042592;28;20448;-79
2023/11/13 07:46:54;;;;;;;17.83;10.67;;;8.20;99.90;;;;;;5041035;28;20030;-79
2023/11/13 07:49:20;;;;;;;17.60;9.67;;;8.30;99.90;;;;;;5040270;28;20399;-79
2023/11/13 07:51:47;;;;;;;20.83;10.57;;;8.30;99.90;;;;;;5040807;28;20014;-79
2023/11/13 07:54:12;;;;;;;18.27;10.30;;;8.30;99.90;;;;;;5039732;28;20014;-79
2023/11/13 07:56:38;;;;;;;20.07;10.20;;;8.30;99.90;;;;;;5041054;28;20036;-80
2023/11/13 07:59:11;;;;;;;21.60;11.47;;;8.40;99.90;;;;;;5038701;28;20052;-79
2023/11/13 08:01:37;;;;;;;19.37;10.83;;;8.40;99.90;;;;;;5042089;28;20064;-80
2023/11/13 08:04:07;;;;;;;18.50;9.50;;;8.40;99.90;;;;;;5039625;28;20429;-79
2023/11/13 08:06:34;;;;;;;19.80;10.23;;;8.40;99.90;;;;;;5040091;28;21256;-79
2023/11/13 08:08:59;;;;;;;17.40;10.17;;;8.40;99.90;;;;;;5041991;28;20036;-78
2023/11/13 08:11:25;;;;;;;18.63;10.20;;;8.50;99.90;;;;;;5038752;28;20021;-79
2023/11/13 08:13:51;;;;;;;19.57;9.47;;;8.50;99.90;;;;;;5040385;28;20053;-79
2023/11/13 08:16:18;;;;;;;17.57;10.43;;;8.50;99.90;;;;;;5038242;28;20045;-78
2023/11/13 08:18:44;;;;;;;17.70;10.20;;;8.60;99.90;;;;;;5040774;28;20025;-79
2023/11/13 08:21:10;;;;;;;17.33;9.27;;;8.60;99.90;;;;;;5039121;28;20076;-78
2023/11/13 08:23:36;;;;;;;20.10;10.50;;;8.60;99.90;;;;;;5040268;28;20124;-78
2023/11/13 08:26:03;;;;;;;16.27;10.03;;;8.70;99.90;;;;;;5040090;28;20033;-78
2023/11/13 08:28:31;;;;;;;20.00;10.33;;;8.70;99.90;;;;;;5038424;28;20022;-79
2023/11/13 08:30:57;;;;;;;13.43;8.47;;;8.70;99.90;;;;;;5041723;28;20036;-79
2023/11/13 08:33:23;;;;;;;15.33;9.37;;;8.80;99.90;;;;;;5038545;28;20022;-78
2023/11/13 08:35:49;;;;;;;13.47;8.03;;;8.80;99.90;;;;;;5040555;28;20247;-79
2023/11/13 08:38:16;;;;;;;13.67;7.77;;;8.90;99.90;;;;;;5038864;28;20024;-79
2023/11/13 08:40:42;;;;;;;14.53;8.43;;;8.90;99.90;;;;;;5039689;28;20036;-79
2023/11/13 08:43:10;;;;;;;16.23;7.07;;;9.00;99.90;;;;;;5039469;28;20080;-78
2023/11/13 08:45:37;;;;;;;14.60;7.43;;;9.00;99.90;;;;;;5038339;28;20021;-79
2023/11/13 08:48:03;;;;;;;13.97;8.10;;;9.10;99.90;;;;;;5041854;28;20327;-78
2023/11/13 08:50:30;;;;;;;14.83;7.57;;;9.10;99.90;;;;;;5038382;28;20440;-79
2023/11/13 08:52:57;;;;;;;13.30;7.13;;;9.20;99.90;;;;;;5040147;28;20055;-79
2023/11/13 08:55:23;;;;;;;11.90;7.37;;;9.30;99.90;;;;;;5038624;28;20060;-79
2023/11/13 08:57:49;;;;;;;12.97;6.60;;;9.30;99.90;;;;;;5041175;28;20021;-79
2023/11/13 09:00:28;;;;;;;11.93;6.07;;;9.50;99.90;;;;;;5039009;28;20975;-79
2023/11/13 09:02:58;;;;;;;13.87;6.40;;;9.40;99.90;;;;;;5038177;28;20029;-79
2023/11/13 09:05:26;;;;;;;11.80;6.13;;;9.50;99.90;;;;;;5040280;28;20424;-79
2023/11/13 09:07:58;;;;;;;12.67;6.23;;;9.50;99.90;;;;;;5037988;28;20398;-78
2023/11/13 09:10:27;;;;;;;10.23;5.30;;;9.50;99.90;;;;;;5041593;28;20033;-79
2023/11/13 09:12:58;;;;;;;9.10;5.17;;;9.60;99.90;;;;;;5039072;28;20025;-79
2023/11/13 09:15:29;;;;;;;10.60;5.63;;;9.70;99.90;;;;;;5038614;28;20029;-79
2023/11/13 09:17:58;;;;;;;14.00;5.77;;;9.70;99.90;;;;;;5041726;28;20056;-79
2023/11/13 09:20:24;;;;;;;15.80;5.57;;;9.70;99.90;;;;;;5037612;28;20033;-79
2023/11/13 09:22:54;;;;;;;12.47;5.70;;;9.80;99.90;;;;;;5039791;28;20024;-79
2023/11/13 09:25:21;;;;;;;14.37;5.67;;;9.90;99.90;;;;;;5042464;28;20018;-80
2023/11/13 09:27:49;;;;;;;11.13;5.27;;;9.90;99.90;;;;;;5042992;28;20025;-79
2023/11/13 09:30:20;;;;;;;13.67;5.40;;;9.90;99.90;;;;;;5042895;28;20028;-79
2023/11/13 09:32:51;;;;;;;12.53;5.43;;;10.00;99.90;;;;;;5042231;28;20382;-80
2023/11/13 09:35:19;;;;;;;15.10;5.63;;;10.00;99.90;;;;;;5043769;28;20036;-80
2023/11/13 09:37:52;;;;;;;10.97;4.57;;;10.00;99.90;;;;;;5043006;28;20018;-79
2023/11/13 09:40:23;;;;;;;16.60;5.03;;;10.10;99.90;;;;;;5043629;28;20120;-80
2023/11/13 09:42:55;;;;;;;12.20;4.18;;;10.10;99.90;;;;;;5042304;28;20068;-79
2023/11/13 09:45:22;;;;;;;12.33;4.57;;;10.20;99.90;;;;;;5042380;28;20026;-78
2023/11/13 09:47:56;;;;;;;10.33;3.77;;;10.20;99.90;;;;;;5043564;28;20030;-79
2023/11/13 09:50:22;;;;;;;8.32;3.35;;;10.20;99.90;;;;;;5041011;28;20041;-79
2023/11/13 09:52:58;;;;;;;10.50;2.65;;;10.30;99.90;;;;;;5043678;28;20053;-79
2023/11/13 09:55:26;;;;;;;11.05;4.00;;;10.30;99.90;;;;;;5041907;28;20036;-79
2023/11/13 09:57:52;;;;;;;10.85;2.97;;;10.30;99.90;;;;;;5042733;28;20481;-79
2023/11/13 10:00:20;;;;;;;8.07;2.72;;;10.40;99.90;;;;;;5042806;28;20037;-79
2023/11/13 10:02:51;;;;;;;8.20;2.33;;;10.40;99.90;;;;;;5041905;28;20022;-79
2023/11/13 10:05:18;;;;;;;7.78;2.25;;;10.40;99.90;;;;;;5043688;28;20086;-79
2023/11/13 10:07:53;;;;;;;6.03;2.47;;;10.50;99.90;;;;;;5045186;28;20053;-79
2023/11/13 10:10:27;;;;;;;7.85;2.38;;;10.50;99.90;;;;;;5045333;28;20529;-79
2023/11/13 10:12:54;;;;;;;;;;;10.50;99.90;;;;;;5042315;28;20691;-78
2023/11/13 10:15:24;;;;;;;8.95;2.13;;;10.60;99.90;;;;;;5043364;28;19905;-79
2023/11/13 10:17:51;;;;;;;8.30;1.88;;;10.60;99.90;;;;;;5042771;28;20057;-79
2023/11/13 10:20:19;;;;;;;6.85;1.88;;;10.60;99.90;;;;;;5042164;28;20073;-81
2023/11/13 10:22:59;;;;;;;6.43;1.17;;;10.60;99.90;;;;;;5042875;28;20020;-79
2023/11/13 10:25:53;;;;;;;8.13;1.92;;;10.60;99.90;;;;;;5040728;28;20033;-79
2023/11/13 10:28:23;;;;;;;9.30;1.58;;;10.60;99.90;;;;;;5066611;28;20045;-80
2023/11/13 10:31:00;;;;;;;7.05;1.40;;;10.60;99.90;;;;;;5043179;28;20404;-79
2023/11/13 10:33:29;;;;;;;4.25;1.08;;;10.60;99.90;;;;;;5040497;28;20052;-80
2023/11/13 10:36:04;;;;;;;5.57;1.45;;;10.60;99.90;;;;;;5041699;28;20037;-80
2023/11/13 10:38:43;;;;;;;4.57;0.93;;;10.60;99.90;;;;;;5042968;28;20093;-80
2023/11/13 10:41:12;;;;;;;7.25;1.10;;;10.70;99.90;;;;;;5040539;28;20040;-80
2023/11/13 10:43:44;;;;;;;4.82;0.80;;;10.70;99.90;;;;;;5042950;28;20053;-79
2023/11/13 10:46:11;;;;;;;3.67;0.70;;;10.70;99.90;;;;;;5040273;28;20375;-80
2023/11/13 10:48:45;;;;;;;3.28;0.93;;;10.70;99.90;;;;;;5042484;28;20022;-79
2023/11/13 10:51:14;;;;;;;4.60;0.90;;;10.70;99.90;;;;;;5044476;28;20017;-79
2023/11/13 10:53:42;;;;;;;4.82;0.80;;;10.70;99.90;;;;;;5048819;28;20025;-80
2023/11/13 10:56:09;;;;;;;3.85;1.27;;;10.70;99.90;;;;;;5041871;28;20103;-79
2023/11/13 10:58:35;;;;;;;3.80;0.60;;;10.70;99.90;;;;;;5040567;28;20018;-79
2023/11/13 11:01:10;;;;;;;2.95;0.60;;;10.70;99.90;;;;;;5042096;28;20044;-80
2023/11/13 11:03:40;;;;;;;3.67;0.70;;;10.70;99.90;;;;;;5040069;28;20017;-80
2023/11/13 11:06:11;;;;;;;2.85;0.70;;;10.70;99.90;;;;;;5041745;28;20032;-80
2023/11/13 11:08:38;;;;;;;6.25;1.08;;;10.70;99.90;;;;;;5041217;28;20033;-79
2023/11/13 11:11:09;;;;;;;4.43;0.90;;;10.70;99.90;;;;;;5042230;28;20071;-80
2023/11/13 11:13:49;;;;;;;4.43;0.93;;;10.70;99.90;;;;;;5041904;28;20026;-80
2023/11/13 11:16:18;;;;;;;4.30;0.98;;;10.70;99.90;;;;;;5039797;28;20032;-80
2023/11/13 11:18:51;;;;;;;2.42;0.70;;;10.60;99.90;;;;;;5041587;28;20030;-80
2023/11/13 11:21:39;;;;;;;2.55;0.95;;;10.70;99.90;;;;;;5040439;28;20106;-79
2023/11/13 11:24:11;;;;;;;3.33;0.80;;;10.70;99.90;;;;;;5041755;28;20101;-79
2023/11/13 11:26:58;;;;;;;2.30;0.70;;;10.70;99.90;;;;;;5043083;28;20036;-80
2023/11/13 11:29:42;;;;;;;2.00;0.90;;;10.70;99.90;;;;;;5039449;28;20033;-80
2023/11/13 11:32:14;;;;;;;3.17;0.80;;;10.80;99.90;;;;;;5040898;28;20041;-80
2023/11/13 11:34:42;;;;;;;4.93;0.90;;;10.80;99.90;;;;;;5041379;28;20021;-79
2023/11/13 11:37:13;;;;;;;4.35;0.90;;;10.80;99.90;;;;;;5039550;28;20033;-80
2023/11/13 11:39:49;;;;;;;5.20;1.17;;;10.80;99.90;;;;;;5042691;28;20029;-80
2023/11/13 11:42:23;;;;;;;5.32;1.05;;;10.80;99.90;;;;;;5039191;28;20053;-80
2023/11/13 11:45:02;;;;;;;7.10;1.52;;;10.90;99.90;;;;;;5040809;28;20171;-80
2023/11/13 11:47:28;;;;;;;4.57;1.08;;;10.90;99.90;;;;;;5041128;28;20383;-80
2023/11/13 11:49:58;;;;;;;6.35;1.65;;;11.00;99.90;;;;;;5039935;28;20017;-79
2023/11/13 11:52:42;;;;;;;6.18;1.73;;;11.00;99.90;;;;;;5050684;28;20013;-79
2023/11/13 11:55:12;;;;;;;4.20;1.50;;;11.00;99.90;;;;;;5039073;28;20021;-80
2023/11/13 11:57:43;;;;;;;10.27;2.55;;;11.00;99.90;;;;;;5042194;28;20104;-79
2023/11/13 12:00:15;;;;;;;7.90;2.67;;;11.10;99.90;;;;;;5040004;28;20541;-79
2023/11/13 12:02:42;;;;;;;11.98;2.92;;;11.20;99.90;;;;;;5039492;28;20035;-80
2023/11/13 12:05:08;;;;;;;8.23;2.63;;;11.20;99.90;;;;;;5041406;28;20100;-79
2023/11/13 12:07:34;;;;;;;7.47;2.55;;;11.30;99.90;;;;;;5038770;28;20051;-79
2023/11/13 12:10:04;;;;;;;7.90;2.63;;;11.30;99.90;;;;;;5040673;28;20018;-80
2023/11/13 12:12:30;;;;;;;10.27;3.70;;;11.40;99.90;;;;;;5040692;28;20021;-79
2023/11/13 12:14:56;;;;;;;7.18;2.90;;;11.40;99.90;;;;;;5040458;28;20044;-80
2023/11/13 12:17:22;;;;;;;11.25;3.38;;;11.50;99.90;;;;;;5040538;28;20452;-80
2023/11/13 12:19:50;;;;;;;10.48;3.53;;;11.50;99.90;;;;;;5039363;28;20075;-80
2023/11/13 12:22:15;;;;;;;12.43;3.72;;;11.60;99.90;;;;;;5040328;28;20025;-80
2023/11/13 12:24:41;;;;;;;12.70;3.78;;;11.70;99.90;;;;;;5038476;28;20052;-80
2023/11/13 12:27:07;;;;;;;9.52;3.22;;;11.70;99.90;;;;;;5040707;28;20052;-80
2023/11/13 12:29:33;;;;;;;12.48;3.80;;;11.70;99.90;;;;;;5040009;28;20060;-80
2023/11/13 12:32:01;;;;;;;13.95;4.18;;;11.80;99.90;;;;;;5040068;28;20109;-80
2023/11/13 12:34:30;;;;;;;9.05;3.42;;;11.80;99.90;;;;;;5039742;28;20105;-80
2023/11/13 12:36:56;;;;;;;13.20;3.80;;;11.80;99.90;;;;;;5038715;28;20072;-80
2023/11/13 12:39:26;;;;;;;9.52;3.45;;;11.90;99.90;;;;;;5042107;28;20021;-80
2023/11/13 12:41:52;;;;;;;11.13;4.07;;;12.00;99.90;;;;;;5037997;28;20069;-80
2023/11/13 12:44:20;;;;;;;10.32;3.45;;;12.00;99.90;;;;;;5040250;28;20032;-80